Time;durP1;ratioP1;P1;durP2;ratioP2;P2;SDS_P1;SDS_P2;PMS_P1;PMS_P2;Temp;Humidity;BMP_temperature;BMP_pressure;BME280_temperature;BME280_humidity;BME280_pressure;Samples;Min_cycle;Max_cycle;Signal;HPM_P1;HPM_P2
2022/10/10 00:01:21;;;;;;;10.77;8.43;;;12.90;99.90;;;;;;5012256;28;20801;-65
2022/10/10 00:03:48;;;;;;;12.30;9.57;;;12.90;99.90;;;;;;5002262;28;20873;-63
2022/10/10 00:06:17;;;;;;;11.30;9.63;;;12.90;99.90;;;;;;5014016;28;20938;-64
2022/10/10 00:08:45;;;;;;;11.50;9.23;;;12.90;99.90;;;;;;5013943;28;20435;-65
2022/10/10 00:11:15;;;;;;;11.70;9.50;;;12.90;99.90;;;;;;5012764;28;20475;-64
2022/10/10 00:13:42;;;;;;;11.30;10.10;;;12.90;99.90;;;;;;5013765;28;20929;-64
2022/10/10 00:16:14;;;;;;;11.17;9.23;;;13.00;99.90;;;;;;4995119;28;20486;-64
2022/10/10 00:18:42;;;;;;;9.83;8.27;;;13.00;99.90;;;;;;4994113;28;20440;-64
2022/10/10 00:21:10;;;;;;;11.27;9.03;;;13.00;99.90;;;;;;5011053;28;20439;-68
2022/10/10 00:23:38;;;;;;;11.03;9.43;;;13.00;99.90;;;;;;5013599;28;20438;-64
2022/10/10 00:26:07;;;;;;;12.70;8.83;;;12.90;99.90;;;;;;4996630;28;20447;-64
2022/10/10 00:28:37;;;;;;;13.47;9.87;;;12.90;99.90;;;;;;4992982;28;20440;-64
2022/10/10 00:31:04;;;;;;;10.70;8.80;;;12.90;99.90;;;;;;5009250;28;20442;-64
2022/10/10 00:33:31;;;;;;;11.90;10.40;;;12.90;99.90;;;;;;5013565;28;20980;-64
2022/10/10 00:35:59;;;;;;;12.73;9.33;;;12.90;99.90;;;;;;4998509;28;20986;-64
2022/10/10 00:38:26;;;;;;;9.10;7.77;;;12.90;99.90;;;;;;4993613;28;20443;-65
2022/10/10 00:40:55;;;;;;;10.23;8.07;;;12.90;99.90;;;;;;5006290;28;20450;-64
2022/10/10 00:43:27;;;;;;;10.13;8.77;;;12.90;99.90;;;;;;5013306;28;20802;-65
2022/10/10 00:45:54;;;;;;;9.90;7.63;;;12.80;99.90;;;;;;5000537;28;20876;-64
2022/10/10 00:48:24;;;;;;;10.30;8.30;;;12.80;99.90;;;;;;4993549;28;20455;-64
2022/10/10 00:50:57;;;;;;;10.97;8.70;;;12.90;99.90;;;;;;5011282;28;20439;-64
2022/10/10 00:53:28;;;;;;;9.03;8.00;;;12.90;99.90;;;;;;5013140;28;20450;-64
2022/10/10 00:55:57;;;;;;;10.20;8.80;;;12.90;99.90;;;;;;4994666;28;20491;-64
2022/10/10 00:58:25;;;;;;;12.60;9.67;;;12.90;99.90;;;;;;4993342;28;20444;-64
2022/10/10 01:00:53;;;;;;;12.27;9.20;;;12.90;99.90;;;;;;5010254;28;20461;-64
2022/10/10 01:03:21;;;;;;;12.33;8.80;;;12.90;99.90;;;;;;5012832;28;20446;-64
2022/10/10 01:05:49;;;;;;;9.33;7.93;;;13.00;99.90;;;;;;4996770;28;20810;-64
2022/10/10 01:08:17;;;;;;;14.53;9.57;;;12.90;99.90;;;;;;4993214;28;20968;-64
2022/10/10 01:10:56;;;;;;;12.00;8.93;;;12.80;99.90;;;;;;5007156;28;20475;-64
2022/10/10 01:13:32;;;;;;;12.03;8.87;;;12.70;99.90;;;;;;5010898;28;20446;-64
2022/10/10 01:16:06;;;;;;;9.90;8.30;;;12.70;99.90;;;;;;4993107;28;20486;-64
2022/10/10 01:18:40;;;;;;;10.33;9.03;;;12.70;99.90;;;;;;4995666;28;20478;-64
2022/10/10 01:21:23;;;;;;;11.90;9.13;;;12.60;99.90;;;;;;5012641;28;20438;-64
2022/10/10 01:24:26;;;;;;;11.73;9.00;;;12.60;99.90;;;;;;5007731;28;20215;-64
2022/10/10 01:27:29;;;;;;;22.57;8.80;;;12.60;99.90;;;;;;4992841;28;20494;-64
2022/10/10 01:30:02;;;;;;;20.60;9.17;;;12.50;99.90;;;;;;5005591;28;20439;-63
2022/10/10 01:32:37;;;;;;;11.63;7.97;;;12.30;99.90;;;;;;5012451;28;20434;-64
2022/10/10 01:35:23;;;;;;;10.73;7.57;;;12.20;99.90;;;;;;4998944;28;20545;-64
2022/10/10 01:37:55;;;;;;;17.57;8.00;;;12.30;99.90;;;;;;4993734;28;20224;-64
2022/10/10 01:40:30;;;;;;;18.53;7.37;;;12.20;99.90;;;;;;5012143;28;20505;-64
2022/10/10 01:43:00;;;;;;;10.97;7.60;;;12.20;99.90;;;;;;5010317;28;20476;-64
2022/10/10 01:45:30;;;;;;;16.73;7.17;;;12.20;99.90;;;;;;4992825;28;20444;-64
2022/10/10 01:48:01;;;;;;;14.10;7.80;;;12.20;99.90;;;;;;4993158;28;20443;-63
2022/10/10 01:50:30;;;;;;;10.57;7.40;;;12.10;99.90;;;;;;5012207;28;20199;-64
2022/10/10 01:53:09;;;;;;;12.10;7.50;;;12.10;99.90;;;;;;5011319;28;20450;-68
2022/10/10 01:55:56;;;;;;;10.20;7.50;;;12.10;99.90;;;;;;4992822;28;20483;-64
2022/10/10 01:58:42;;;;;;;13.43;8.00;;;12.00;99.90;;;;;;4992748;28;20671;-63
2022/10/10 02:01:18;;;;;;;10.63;6.60;;;12.00;99.90;;;;;;5003453;28;20188;-63
2022/10/10 02:03:50;;;;;;;10.17;6.23;;;12.00;99.90;;;;;;5006216;28;20972;-64
2022/10/10 02:06:23;;;;;;;9.23;7.10;;;12.00;99.90;;;;;;4992640;28;20528;-65
2022/10/10 02:08:55;;;;;;;7.43;5.60;;;12.00;99.90;;;;;;4997876;28;20646;-64
2022/10/10 02:11:24;;;;;;;10.73;6.10;;;12.00;99.90;;;;;;5012098;28;20191;-63
2022/10/10 02:13:56;;;;;;;22.80;6.05;;;12.00;99.90;;;;;;5006541;28;20193;-64
2022/10/10 02:16:29;;;;;;;9.63;6.00;;;11.80;99.90;;;;;;4992422;28;20220;-63
2022/10/10 02:18:58;;;;;;;6.47;5.47;;;11.80;99.90;;;;;;4997430;28;20191;-63
2022/10/10 02:21:26;;;;;;;12.15;5.82;;;11.70;99.90;;;;;;5011931;28;20806;-64
2022/10/10 02:23:59;;;;;;;7.65;5.13;;;11.80;99.90;;;;;;5006700;28;20670;-65
2022/10/10 02:26:28;;;;;;;10.98;5.38;;;11.80;99.90;;;;;;4992569;28;20202;-64
2022/10/10 02:28:59;;;;;;;7.05;5.28;;;11.70;99.90;;;;;;4996119;28;20191;-64
2022/10/10 02:31:34;;;;;;;7.00;5.57;;;11.70;99.90;;;;;;4998282;28;20204;-64
2022/10/10 02:34:07;;;;;;;6.35;4.90;;;11.70;99.90;;;;;;4996917;28;20196;-65
2022/10/10 02:36:34;;;;;;;8.18;5.80;;;11.70;99.90;;;;;;5011935;28;20271;-64
2022/10/10 02:39:02;;;;;;;8.32;4.50;;;11.70;99.90;;;;;;5007693;28;20211;-66
2022/10/10 02:41:30;;;;;;;5.95;4.95;;;11.70;99.90;;;;;;4992456;28;20200;-65
2022/10/10 02:43:59;;;;;;;5.65;5.00;;;11.80;99.90;;;;;;4993791;28;20863;-64
2022/10/10 02:46:26;;;;;;;7.50;4.55;;;11.70;99.90;;;;;;5011983;28;20222;-64
2022/10/10 02:48:54;;;;;;;5.47;4.32;;;11.60;99.90;;;;;;5009776;28;20191;-64
2022/10/10 02:51:22;;;;;;;11.48;4.97;;;11.60;99.90;;;;;;4993242;28;20203;-64
2022/10/10 02:53:50;;;;;;;6.85;5.43;;;11.70;99.90;;;;;;4995888;28;20718;-64
2022/10/10 02:56:17;;;;;;;5.88;4.72;;;11.70;99.90;;;;;;5015361;28;20219;-63
2022/10/10 02:58:44;;;;;;;6.45;5.85;;;11.60;99.90;;;;;;5015019;28;20721;-64
2022/10/10 03:01:11;;;;;;;4.68;3.10;;;11.60;99.90;;;;;;5014740;28;20188;-64
2022/10/10 03:03:38;;;;;;;4.15;3.28;;;11.50;99.90;;;;;;5014988;28;20188;-64
2022/10/10 03:06:07;;;;;;;4.60;3.35;;;11.40;99.90;;;;;;4996812;28;20193;-63
2022/10/10 03:08:36;;;;;;;4.35;3.30;;;11.30;99.90;;;;;;4995673;28;20200;-63
2022/10/10 03:11:04;;;;;;;4.60;3.60;;;11.30;99.90;;;;;;5012389;28;20196;-63
2022/10/10 03:13:31;;;;;;;8.20;4.55;;;11.20;99.90;;;;;;5014530;28;20262;-64
2022/10/10 03:15:58;;;;;;;6.82;4.85;;;11.10;99.90;;;;;;4998445;28;20227;-63
2022/10/10 03:18:25;;;;;;;5.93;4.43;;;11.00;99.90;;;;;;4996113;28;20204;-64
2022/10/10 03:20:53;;;;;;;6.35;4.32;;;11.00;99.90;;;;;;5014826;28;20192;-63
2022/10/10 03:23:22;;;;;;;4.35;3.95;;;10.90;99.90;;;;;;5013941;28;20187;-66
2022/10/10 03:25:49;;;;;;;4.82;4.13;;;10.90;99.90;;;;;;5014713;28;20685;-63
2022/10/10 03:28:17;;;;;;;11.68;3.67;;;10.90;99.90;;;;;;5014445;28;20191;-64
2022/10/10 03:30:44;;;;;;;4.60;3.92;;;10.90;99.90;;;;;;4995394;28;20192;-63
2022/10/10 03:33:12;;;;;;;7.28;4.60;;;10.80;99.90;;;;;;4995054;28;20193;-65
2022/10/10 03:35:39;;;;;;;5.60;3.13;;;10.80;99.90;;;;;;5011904;28;20225;-64
2022/10/10 03:38:06;;;;;;;3.70;2.80;;;10.80;99.90;;;;;;5014582;28;20574;-64
2022/10/10 03:40:39;;;;;;;4.28;3.58;;;10.80;99.90;;;;;;4998211;28;20279;-64
2022/10/10 03:43:07;;;;;;;4.63;3.95;;;10.70;99.90;;;;;;4995867;28;20188;-64
2022/10/10 03:45:34;;;;;;;4.35;3.60;;;10.80;99.90;;;;;;5014380;28;20200;-64
2022/10/10 03:48:01;;;;;;;6.95;3.75;;;10.80;99.90;;;;;;5011294;28;20202;-65
2022/10/10 03:50:28;;;;;;;5.82;4.18;;;10.80;99.90;;;;;;5013675;28;20223;-64
2022/10/10 03:52:55;;;;;;;4.85;3.95;;;10.70;99.90;;;;;;5011547;28;20230;-65
2022/10/10 03:55:23;;;;;;;5.15;3.45;;;10.80;99.90;;;;;;5000674;28;20561;-63
2022/10/10 03:57:51;;;;;;;4.90;3.08;;;10.80;99.90;;;;;;5013991;28;20198;-63
2022/10/10 04:00:18;;;;;;;3.63;2.65;;;10.90;99.90;;;;;;5014092;28;20200;-64
2022/10/10 04:02:46;;;;;;;3.55;3.08;;;10.80;99.90;;;;;;5013566;28;20195;-64
2022/10/10 04:05:13;;;;;;;3.50;2.67;;;10.80;99.90;;;;;;5014324;28;20214;-64
2022/10/10 04:07:41;;;;;;;3.97;2.95;;;10.80;99.90;;;;;;4996543;28;20268;-64
2022/10/10 04:10:09;;;;;;;4.68;3.75;;;10.80;99.90;;;;;;4994622;28;20666;-64
2022/10/10 04:12:37;;;;;;;5.10;4.20;;;10.80;99.90;;;;;;5010528;28;20646;-64
2022/10/10 04:15:07;;;;;;;10.15;4.93;;;10.80;99.90;;;;;;5014317;28;20200;-63
2022/10/10 04:17:34;;;;;;;11.20;4.55;;;10.90;99.90;;;;;;4998730;28;20583;-64
2022/10/10 04:20:01;;;;;;;8.93;6.75;;;10.90;99.90;;;;;;4994704;28;20196;-63
2022/10/10 04:22:28;;;;;;;7.15;6.25;;;10.90;99.90;;;;;;5008062;28;20200;-64
2022/10/10 04:24:55;;;;;;;8.63;6.10;;;10.90;99.90;;;;;;5013838;28;20191;-64
2022/10/10 04:27:22;;;;;;;5.60;4.53;;;10.90;99.90;;;;;;5000894;28;20220;-64
2022/10/10 04:29:54;;;;;;;4.45;3.58;;;10.90;99.90;;;;;;4994260;28;20287;-64
2022/10/10 04:32:23;;;;;;;3.58;2.97;;;10.90;99.90;;;;;;5005884;28;20191;-64
2022/10/10 04:34:50;;;;;;;3.80;3.15;;;10.90;99.90;;;;;;5013963;28;20309;-63
2022/10/10 04:37:17;;;;;;;6.72;3.10;;;11.00;99.90;;;;;;4996759;28;20232;-64
2022/10/10 04:39:44;;;;;;;4.65;2.60;;;10.90;99.90;;;;;;4994192;28;20220;-64
2022/10/10 04:42:12;;;;;;;3.65;2.97;;;10.90;99.90;;;;;;5009036;28;20639;-64
2022/10/10 04:44:39;;;;;;;3.50;2.40;;;10.90;99.90;;;;;;5013593;28;20206;-64
2022/10/10 04:47:06;;;;;;;3.60;2.25;;;10.90;99.90;;;;;;4999299;28;20192;-63
2022/10/10 04:49:35;;;;;;;3.65;2.88;;;10.80;99.90;;;;;;4994061;28;20204;-63
2022/10/10 04:52:02;;;;;;;4.00;3.33;;;10.80;99.90;;;;;;5002823;28;20196;-63
2022/10/10 04:54:30;;;;;;;3.40;2.70;;;10.80;99.90;;;;;;5011282;28;20195;-64
2022/10/10 04:56:57;;;;;;;3.50;2.40;;;10.80;99.90;;;;;;5011060;28;20220;-63
2022/10/10 04:59:24;;;;;;;4.70;3.22;;;10.80;99.90;;;;;;5011750;28;20204;-64
2022/10/10 05:01:51;;;;;;;8.02;4.50;;;10.90;99.90;;;;;;5010877;28;20199;-64
2022/10/10 05:04:18;;;;;;;5.80;4.78;;;10.90;99.90;;;;;;5010656;28;20187;-64
2022/10/10 05:06:47;;;;;;;5.25;3.67;;;10.80;99.90;;;;;;5008925;28;20605;-63
2022/10/10 05:09:14;;;;;;;4.45;3.63;;;10.80;99.90;;;;;;5011436;28;20218;-64
2022/10/10 05:11:41;;;;;;;5.72;3.75;;;10.80;99.90;;;;;;5008738;28;20183;-64
2022/10/10 05:14:09;;;;;;;4.93;3.67;;;10.70;99.90;;;;;;5010809;28;20196;-64
2022/10/10 05:16:36;;;;;;;5.78;3.88;;;10.70;99.90;;;;;;5010579;28;20211;-64
2022/10/10 05:19:03;;;;;;;4.18;3.78;;;10.70;99.90;;;;;;5009812;28;20191;-63
2022/10/10 05:21:30;;;;;;;5.18;3.90;;;10.80;99.90;;;;;;5010344;28;20187;-65
2022/10/10 05:23:59;;;;;;;6.57;3.90;;;10.80;99.90;;;;;;5005936;28;20194;-64
2022/10/10 05:26:26;;;;;;;6.57;4.60;;;10.70;99.90;;;;;;5010464;28;21035;-64
2022/10/10 05:28:53;;;;;;;6.90;4.82;;;10.70;99.90;;;;;;5010616;28;20195;-64
2022/10/10 05:31:20;;;;;;;6.50;4.70;;;10.70;99.90;;;;;;5010928;28;20199;-64
2022/10/10 05:33:48;;;;;;;4.65;4.13;;;10.70;99.90;;;;;;5010356;28;20204;-64
2022/10/10 05:36:15;;;;;;;5.68;4.28;;;10.70;99.90;;;;;;5011059;28;20317;-65
2022/10/10 05:38:43;;;;;;;5.10;3.50;;;10.70;99.90;;;;;;5009565;28;20191;-65
2022/10/10 05:41:12;;;;;;;6.25;4.60;;;10.70;99.90;;;;;;5010414;28;20191;-64
2022/10/10 05:43:39;;;;;;;6.95;4.43;;;10.80;99.90;;;;;;5009098;28;20192;-64
2022/10/10 05:46:06;;;;;;;6.55;3.38;;;10.80;99.90;;;;;;5012020;28;20279;-64
2022/10/10 05:48:33;;;;;;;7.38;4.22;;;10.80;99.90;;;;;;5011101;28;20258;-65
2022/10/10 05:51:01;;;;;;;7.25;4.68;;;10.90;99.90;;;;;;5011120;28;20544;-63
2022/10/10 05:53:29;;;;;;;6.05;4.57;;;10.90;99.90;;;;;;5011657;28;20212;-64
2022/10/10 05:55:56;;;;;;;6.85;4.40;;;10.90;99.90;;;;;;5011238;28;20928;-64
2022/10/10 05:58:26;;;;;;;6.00;4.30;;;11.00;99.90;;;;;;5011256;28;20192;-64
2022/10/10 06:00:53;;;;;;;6.28;5.38;;;11.00;99.90;;;;;;5010037;28;20180;-64
2022/10/10 06:03:20;;;;;;;7.53;5.45;;;10.90;99.90;;;;;;5007356;28;20246;-64
2022/10/10 06:05:51;;;;;;;12.35;7.32;;;10.90;99.90;;;;;;5010516;28;20227;-64
2022/10/10 06:08:18;;;;;;;10.75;7.38;;;11.00;99.90;;;;;;5008143;28;20253;-64
2022/10/10 06:10:46;;;;;;;6.90;5.32;;;11.10;99.90;;;;;;5008766;28;20180;-64
2022/10/10 06:13:15;;;;;;;6.45;4.57;;;11.10;99.90;;;;;;5009438;28;20639;-63
2022/10/10 06:15:44;;;;;;;5.32;4.25;;;11.20;99.90;;;;;;4995825;28;20184;-68
2022/10/10 06:18:12;;;;;;;8.30;6.18;;;11.20;99.90;;;;;;5003477;28;20219;-65
2022/10/10 06:20:43;;;;;;;9.38;6.63;;;11.30;99.90;;;;;;4975379;28;21110;-68
2022/10/10 06:23:10;;;;;;;8.52;6.40;;;11.30;99.90;;;;;;4914477;28;20794;-64
2022/10/10 06:25:37;;;;;;;9.15;5.93;;;11.30;99.90;;;;;;5004919;28;20598;-62
2022/10/10 06:28:06;;;;;;;9.20;5.53;;;11.40;99.90;;;;;;4964991;28;20199;-66
2022/10/10 06:30:33;;;;;;;5.47;4.90;;;11.40;99.90;;;;;;5009656;28;20718;-62
2022/10/10 06:33:02;;;;;;;8.52;4.80;;;11.40;99.90;;;;;;5008700;28;20273;-62
2022/10/10 06:35:29;;;;;;;5.00;3.75;;;11.50;99.90;;;;;;5010593;28;20226;-64
2022/10/10 06:37:56;;;;;;;4.00;3.60;;;11.60;99.90;;;;;;5014700;28;20261;-64
2022/10/10 06:40:23;;;;;;;5.97;4.55;;;11.60;99.90;;;;;;5015044;28;20630;-65
2022/10/10 06:42:50;;;;;;;6.28;4.43;;;11.60;99.90;;;;;;5014718;28;20223;-65
2022/10/10 06:45:17;;;;;;;5.90;5.10;;;11.70;99.90;;;;;;5010961;28;20269;-65
2022/10/10 06:47:44;;;;;;;6.22;4.85;;;11.70;99.90;;;;;;5013131;28;20195;-64
2022/10/10 06:50:12;;;;;;;4.80;3.65;;;11.80;99.90;;;;;;5012672;28;20191;-64
2022/10/10 06:52:41;;;;;;;7.53;5.65;;;11.90;99.90;;;;;;5012233;28;20721;-65
2022/10/10 06:55:08;;;;;;;12.23;8.13;;;12.00;99.90;;;;;;5012089;28;20196;-64
2022/10/10 06:57:35;;;;;;;5.82;5.22;;;12.10;99.90;;;;;;5013113;28;20290;-64
2022/10/10 07:00:06;;;;;;;9.55;3.85;;;12.20;99.90;;;;;;5013181;28;20290;-64
2022/10/10 07:02:33;;;;;;;8.32;4.20;;;12.30;99.90;;;;;;5012999;28;20659;-64
2022/10/10 07:04:59;;;;;;;6.22;3.38;;;12.40;99.90;;;;;;5012595;28;20210;-63
2022/10/10 07:07:28;;;;;;;6.47;3.70;;;12.50;99.90;;;;;;5012845;28;20200;-64
2022/10/10 07:09:55;;;;;;;41.43;37.13;;;12.60;99.90;;;;;;5012604;28;20447;-64
2022/10/10 07:12:22;;;;;;;24.52;22.00;;;12.70;99.90;;;;;;5010998;28;20447;-64
2022/10/10 07:14:49;;;;;;;15.63;8.60;;;12.80;99.90;;;;;;5013304;28;20242;-64
2022/10/10 07:17:15;;;;;;;8.07;7.10;;;12.80;99.90;;;;;;5012920;28;20834;-64
2022/10/10 07:19:42;;;;;;;7.07;5.80;;;12.80;99.90;;;;;;5012954;28;20504;-66
2022/10/10 07:22:09;;;;;;;13.50;9.60;;;12.80;99.90;;;;;;5010490;28;20497;-64
2022/10/10 07:24:38;;;;;;;22.30;14.50;;;13.00;99.90;;;;;;5012381;28;20204;-65
2022/10/10 07:27:05;;;;;;;22.23;18.33;;;13.10;99.90;;;;;;5012478;28;20913;-64
2022/10/10 07:29:32;;;;;;;11.90;8.23;;;13.20;99.90;;;;;;5012624;28;20529;-65
2022/10/10 07:31:59;;;;;;;8.43;4.97;;;13.30;99.90;;;;;;5012772;28;20496;-64
2022/10/10 07:34:26;;;;;;;9.63;5.30;;;13.40;99.90;;;;;;5012573;28;20454;-64
2022/10/10 07:36:53;;;;;;;5.97;5.37;;;13.50;99.90;;;;;;5009877;28;20485;-64
2022/10/10 07:39:20;;;;;;;5.50;4.97;;;13.60;99.90;;;;;;5012281;28;20445;-64
2022/10/10 07:41:50;;;;;;;11.73;5.27;;;13.80;99.90;;;;;;5012621;28;20446;-64
2022/10/10 07:44:17;;;;;;;7.47;5.33;;;13.90;99.10;;;;;;5012061;28;20532;-64
2022/10/10 07:46:44;;;;;;;18.43;14.30;;;14.10;99.30;;;;;;5012869;28;20838;-65
2022/10/10 07:49:12;;;;;;;13.67;7.40;;;14.20;98.50;;;;;;5012368;28;20442;-64
2022/10/10 07:51:39;;;;;;;7.70;6.00;;;14.40;99.10;;;;;;5012469;28;20460;-64
2022/10/10 07:54:06;;;;;;;11.90;6.23;;;14.60;99.40;;;;;;5012183;28;20450;-65
2022/10/10 07:56:33;;;;;;;5.27;3.60;;;14.80;99.10;;;;;;5012358;28;20446;-64
2022/10/10 07:59:01;;;;;;;13.20;3.43;;;14.90;97.40;;;;;;5010527;28;20486;-64
2022/10/10 08:01:28;;;;;;;6.80;3.03;;;15.00;97.70;;;;;;5011480;28;20509;-64
2022/10/10 08:03:56;;;;;;;6.90;3.20;;;15.20;97.90;;;;;;5011255;28;20976;-64
2022/10/10 08:06:23;;;;;;;6.67;3.07;;;15.50;96.90;;;;;;5011633;28;20522;-65
2022/10/10 08:08:50;;;;;;;9.87;6.63;;;15.70;96.70;;;;;;5012232;28;20828;-65
2022/10/10 08:11:18;;;;;;;9.20;6.97;;;15.90;96.70;;;;;;5011163;28;21087;-64
2022/10/10 08:13:45;;;;;;;7.40;3.27;;;16.20;95.20;;;;;;5010960;28;20444;-65
2022/10/10 08:16:13;;;;;;;5.40;2.80;;;16.30;95.50;;;;;;5011298;28;20446;-66
2022/10/10 08:18:40;;;;;;;4.40;2.87;;;16.60;94.60;;;;;;5011934;28;20572;-65
2022/10/10 08:21:09;;;;;;;4.53;2.77;;;16.80;95.20;;;;;;5011941;28;20494;-65
2022/10/10 08:23:36;;;;;;;6.77;2.90;;;17.20;95.70;;;;;;5011368;28;20487;-66
2022/10/10 08:26:07;;;;;;;6.80;3.20;;;17.70;94.20;;;;;;5012051;28;20505;-65
2022/10/10 08:28:34;;;;;;;7.03;2.47;;;18.10;93.50;;;;;;5012020;28;20450;-65
2022/10/10 08:31:05;;;;;;;11.73;2.87;;;18.70;92.20;;;;;;5011906;28;20443;-65
2022/10/10 08:33:34;;;;;;;7.37;2.40;;;19.20;89.80;;;;;;5011508;28;20529;-65
2022/10/10 08:36:05;;;;;;;5.33;2.93;;;19.50;85.10;;;;;;5011457;28;20903;-64
2022/10/10 08:38:32;;;;;;;5.53;2.50;;;19.90;86.70;;;;;;5011657;28;20917;-64
2022/10/10 08:41:00;;;;;;;7.23;3.17;;;20.10;82.10;;;;;;5011393;28;20455;-65
2022/10/10 08:43:33;;;;;;;5.63;2.17;;;20.30;83.50;;;;;;5010772;28;20529;-64
2022/10/10 08:46:08;;;;;;;4.70;2.33;;;20.40;83.30;;;;;;5011616;28;20438;-66
2022/10/10 08:48:40;;;;;;;3.80;1.83;;;20.60;83.70;;;;;;5010171;28;22004;-64
2022/10/10 08:51:11;;;;;;;4.03;2.00;;;21.00;81.00;;;;;;5011129;28;20443;-65
2022/10/10 08:53:43;;;;;;;5.90;2.17;;;21.40;76.50;;;;;;5010325;28;20450;-65
2022/10/10 08:56:15;;;;;;;5.57;2.90;;;21.50;74.20;;;;;;5010234;28;20549;-65
2022/10/10 08:58:46;;;;;;;10.93;2.37;;;21.70;75.60;;;;;;5011181;28;20548;-65
2022/10/10 09:01:19;;;;;;;5.10;3.00;;;21.90;75.10;;;;;;5010202;28;20475;-65
2022/10/10 09:03:50;;;;;;;6.80;2.80;;;22.00;71.20;;;;;;5010049;28;20443;-65
2022/10/10 09:06:28;;;;;;;6.70;2.70;;;22.10;70.80;;;;;;5010900;28;20458;-66
2022/10/10 09:09:05;;;;;;;7.20;2.37;;;22.30;70.90;;;;;;5010931;28;20496;-65
2022/10/10 09:11:50;;;;;;;6.70;2.30;;;22.50;69.10;;;;;;5011089;28;20446;-65
2022/10/10 09:14:33;;;;;;;5.90;2.00;;;22.70;67.40;;;;;;5010602;28;20902;-67
2022/10/10 09:17:06;;;;;;;11.93;5.03;;;22.80;63.80;;;;;;5009724;28;20449;-65
2022/10/10 09:19:49;;;;;;;9.30;4.10;;;22.80;64.20;;;;;;5010718;28;20455;-66
2022/10/10 09:22:20;;;;;;;4.33;2.30;;;22.80;65.30;;;;;;5010956;28;20447;-66
2022/10/10 09:24:52;;;;;;;6.10;2.40;;;22.80;63.70;;;;;;5009302;28;20438;-65
2022/10/10 09:27:27;;;;;;;5.50;2.50;;;22.80;62.40;;;;;;5011004;28;20514;-65
2022/10/10 09:30:01;;;;;;;3.57;1.87;;;22.90;63.90;;;;;;5010211;28;20449;-65
2022/10/10 09:32:34;;;;;;;7.27;2.60;;;23.10;62.90;;;;;;5010641;28;20451;-65
2022/10/10 09:35:14;;;;;;;11.43;2.70;;;23.30;60.00;;;;;;5009607;28;20501;-67
2022/10/10 09:37:42;;;;;;;6.80;2.50;;;23.40;60.20;;;;;;5010298;28;20502;-63
2022/10/10 09:40:17;;;;;;;8.50;2.80;;;23.70;60.70;;;;;;5010283;28;20470;-63
2022/10/10 09:42:44;;;;;;;3.70;2.00;;;24.20;59.40;;;;;;5008456;28;20845;-62
2022/10/10 09:45:18;;;;;;;5.43;1.93;;;24.80;58.80;;;;;;5010162;28;20430;-63
2022/10/10 09:47:45;;;;;;;6.03;2.43;;;25.30;57.80;;;;;;5010159;28;20435;-63
2022/10/10 09:50:15;;;;;;;11.30;3.63;;;25.90;53.90;;;;;;5010710;28;20797;-64
2022/10/10 09:52:43;;;;;;;6.70;3.10;;;26.20;53.00;;;;;;5010271;28;20439;-64
2022/10/10 09:55:23;;;;;;;6.53;2.00;;;26.50;51.50;;;;;;5009764;28;20447;-63
2022/10/10 09:57:52;;;;;;;7.40;2.67;;;26.90;50.90;;;;;;5008287;28;20491;-63
2022/10/10 10:00:28;;;;;;;8.33;2.50;;;27.70;47.50;;;;;;5011814;28;20852;-63
2022/10/10 10:03:13;;;;;;;8.27;3.03;;;28.40;44.80;;;;;;5014639;28;20490;-63
2022/10/10 10:05:45;;;;;;;11.60;3.27;;;29.20;45.70;;;;;;5014199;28;20442;-64
2022/10/10 10:08:23;;;;;;;6.90;3.50;;;30.50;45.50;;;;;;5010253;28;20936;-62
2022/10/10 10:10:50;;;;;;;9.70;3.10;;;31.60;42.10;;;;;;5014116;28;20446;-63
2022/10/10 10:13:23;;;;;;;9.50;2.70;;;32.40;36.40;;;;;;5014378;28;20512;-63
2022/10/10 10:15:58;;;;;;;5.70;3.10;;;32.70;36.10;;;;;;5013394;28;20497;-62
2022/10/10 10:18:27;;;;;;;6.07;2.70;;;32.80;37.20;;;;;;5011794;28;21003;-62
2022/10/10 10:21:11;;;;;;;8.60;2.83;;;33.00;36.40;;;;;;5014453;28;20833;-62
2022/10/10 10:23:42;;;;;;;4.97;2.17;;;33.60;34.50;;;;;;5011104;28;20449;-63
2022/10/10 10:26:17;;;;;;;6.43;2.13;;;33.70;34.90;;;;;;5014108;28;20914;-63
2022/10/10 10:28:45;;;;;;;8.80;2.50;;;34.50;33.40;;;;;;5014326;28;20442;-63
2022/10/10 10:31:20;;;;;;;4.10;1.93;;;36.20;33.20;;;;;;5013340;28;20450;-63
2022/10/10 10:33:54;;;;;;;6.33;2.33;;;37.60;29.90;;;;;;5012795;28;20474;-63
2022/10/10 10:36:36;;;;;;;5.03;2.77;;;38.90;28.60;;;;;;5013645;28;20859;-63
2022/10/10 10:39:23;;;;;;;5.83;2.30;;;38.90;26.40;;;;;;5013751;28;20442;-63
2022/10/10 10:41:56;;;;;;;6.40;2.60;;;38.10;26.40;;;;;;5013319;28;20801;-63
2022/10/10 10:44:36;;;;;;;6.40;2.37;;;37.30;26.90;;;;;;5011095;28;20476;-63
2022/10/10 10:47:21;;;;;;;7.13;2.33;;;36.60;28.00;;;;;;5013227;28;20493;-64
2022/10/10 10:50:02;;;;;;;5.47;2.27;;;36.60;28.20;;;;;;5013529;28;20478;-63
2022/10/10 10:52:40;;;;;;;5.30;1.80;;;37.70;29.20;;;;;;5011624;28;20447;-63
2022/10/10 10:55:16;;;;;;;7.30;2.00;;;39.60;27.40;;;;;;5012988;28;20491;-64
2022/10/10 10:57:58;;;;;;;3.97;2.20;;;42.30;25.90;;;;;;5013329;28;20454;-64
2022/10/10 11:00:26;;;;;;;7.90;2.97;;;45.10;22.30;;;;;;5010976;28;20442;-64
2022/10/10 11:03:07;;;;;;;6.20;2.30;;;47.30;21.70;;;;;;5013530;28;20446;-64
2022/10/10 11:05:37;;;;;;;6.23;3.70;;;49.10;19.50;;;;;;5012064;28;20529;-64
2022/10/10 11:08:28;;;;;;;3.70;2.03;;;50.50;18.00;;;;;;5013362;28;20870;-64
2022/10/10 11:11:09;;;;;;;6.03;1.90;;;51.00;16.80;;;;;;5000930;28;20450;-64
2022/10/10 11:13:43;;;;;;;8.00;1.90;;;51.70;16.50;;;;;;5011480;28;20442;-65
2022/10/10 11:16:20;;;;;;;4.00;1.90;;;52.60;14.20;;;;;;5012814;28;20855;-64
2022/10/10 11:18:50;;;;;;;5.57;1.90;;;;;;;;;;5011281;28;20445;-64
2022/10/10 11:21:20;;;;;;;7.47;1.90;;;51.20;13.60;;;;;;5011980;28;20505;-63
2022/10/10 11:23:53;;;;;;;5.50;1.80;;;46.20;15.80;;;;;;5009493;28;20505;-63
2022/10/10 11:26:24;;;;;;;4.03;2.13;;;43.80;16.50;;;;;;5009699;28;21944;-63
2022/10/10 11:28:56;;;;;;;4.90;1.90;;;41.60;18.60;;;;;;5011569;28;20494;-63
2022/10/10 11:31:28;;;;;;;5.50;2.20;;;39.60;19.70;;;;;;5010669;28;20450;-62
2022/10/10 11:33:59;;;;;;;3.97;1.53;;;37.70;21.20;;;;;;5011699;28;20439;-62
2022/10/10 11:36:29;;;;;;;5.83;1.80;;;36.00;23.10;;;;;;5012018;28;20482;-63
2022/10/10 11:39:04;;;;;;;6.30;2.10;;;34.60;23.90;;;;;;5011608;28;20801;-63
2022/10/10 11:41:37;;;;;;;4.57;1.50;;;33.40;25.40;;;;;;5010619;28;20504;-62
2022/10/10 11:44:13;;;;;;;5.40;1.97;;;32.30;27.00;;;;;;5011215;28;20466;-63
2022/10/10 11:46:45;;;;;;;8.43;1.70;;;31.20;29.00;;;;;;5011129;28;20447;-63
2022/10/10 11:49:20;;;;;;;4.10;1.67;;;30.30;30.00;;;;;;5008302;28;20540;-62
2022/10/10 11:52:08;;;;;;;6.03;2.00;;;29.50;32.20;;;;;;5010607;28;20446;-62
2022/10/10 11:54:41;;;;;;;3.80;1.77;;;28.70;32.60;;;;;;5011911;28;20780;-63
2022/10/10 11:57:14;;;;;;;7.20;2.10;;;28.20;34.40;;;;;;5012525;28;20508;-64
2022/10/10 11:59:45;;;;;;;8.20;2.00;;;27.90;35.00;;;;;;5011707;28;20980;-64
2022/10/10 12:02:19;;;;;;;4.57;2.07;;;27.80;36.20;;;;;;5012091;28;20844;-64
2022/10/10 12:04:46;;;;;;;5.50;2.03;;;27.60;36.80;;;;;;5010441;28;20963;-63
2022/10/10 12:07:19;;;;;;;4.20;1.80;;;27.40;37.80;;;;;;5011270;28;20957;-63
2022/10/10 12:09:53;;;;;;;5.10;1.87;;;27.80;38.90;;;;;;5009914;28;20490;-62
2022/10/10 12:12:24;;;;;;;3.63;1.80;;;28.50;37.80;;;;;;5011981;28;20447;-64
2022/10/10 12:14:54;;;;;;;5.23;2.67;;;29.10;37.10;;;;;;5009943;28;20493;-62
2022/10/10 12:17:25;;;;;;;5.83;1.57;;;29.20;35.80;;;;;;5012046;28;20873;-62
2022/10/10 12:19:53;;;;;;;9.63;2.27;;;29.10;35.70;;;;;;5011493;28;20438;-62
2022/10/10 12:22:27;;;;;;;8.97;2.00;;;28.80;35.10;;;;;;5012051;28;20828;-62
2022/10/10 12:25:22;;;;;;;7.73;1.73;;;28.30;36.10;;;;;;5011604;28;20445;-62
2022/10/10 12:28:04;;;;;;;3.20;1.50;;;27.70;36.50;;;;;;5011210;28;20431;-62
2022/10/10 12:30:31;;;;;;;5.80;1.70;;;27.30;37.40;;;;;;5011885;28;20513;-62
2022/10/10 12:32:58;;;;;;;4.80;2.07;;;26.90;37.90;;;;;;5011763;28;20513;-62
2022/10/10 12:35:38;;;;;;;4.43;1.80;;;26.60;39.50;;;;;;5010920;28;20447;-62
2022/10/10 12:38:15;;;;;;;8.90;2.20;;;26.10;39.80;;;;;;5011559;28;20481;-62
2022/10/10 12:41:06;;;;;;;5.40;1.80;;;25.80;41.00;;;;;;5011074;28;20438;-62
2022/10/10 12:43:44;;;;;;;6.93;1.83;;;25.60;43.00;;;;;;5010040;28;20538;-62
2022/10/10 12:46:23;;;;;;;3.27;1.77;;;25.50;42.70;;;;;;5011650;28;20517;-62
2022/10/10 12:49:00;;;;;;;6.67;1.70;;;25.40;42.00;;;;;;5008059;28;20499;-62
2022/10/10 12:51:29;;;;;;;9.20;1.90;;;25.40;41.90;;;;;;5011401;28;20439;-63
2022/10/10 12:54:00;;;;;;;7.37;1.83;;;25.30;42.20;;;;;;5008688;28;21284;-62
2022/10/10 12:56:38;;;;;;;8.53;2.50;;;25.10;41.90;;;;;;5011471;28;20454;-62
2022/10/10 12:59:06;;;;;;;3.40;1.50;;;24.90;41.90;;;;;;5011118;28;20497;-62
2022/10/10 13:01:36;;;;;;;8.83;2.07;;;24.70;42.40;;;;;;5011231;28;20477;-62
2022/10/10 13:04:04;;;;;;;6.03;1.77;;;24.50;44.10;;;;;;5011166;28;20501;-62